Time;durP1;ratioP1;P1;durP2;ratioP2;P2;SDS_P1;SDS_P2;PMS_P1;PMS_P2;Temp;Humidity;BMP_temperature;BMP_pressure;BME280_temperature;BME280_humidity;BME280_pressure;Samples;Min_cycle;Max_cycle;Signal;HPM_P1;HPM_P2
2022/01/01 00:02:16;;;;;;;13.60;9.20;;;9.80;96.30;;;;;;4938000;29;20455;-77
2022/01/01 00:04:43;;;;;;;11.90;9.77;;;9.80;96.30;;;;;;4937885;29;20423;-75
2022/01/01 00:07:12;;;;;;;12.87;10.50;;;9.80;96.30;;;;;;4920770;29;20483;-75
2022/01/01 00:09:38;;;;;;;10.80;8.37;;;9.80;96.30;;;;;;4946051;29;20460;-75
2022/01/01 00:12:05;;;;;;;12.07;9.93;;;9.80;96.30;;;;;;4956824;29;20493;-77
2022/01/01 00:14:30;;;;;;;13.40;9.33;;;9.80;96.30;;;;;;4956909;29;20418;-76
2022/01/01 00:16:56;;;;;;;13.00;10.10;;;9.80;96.30;;;;;;4956650;29;20489;-77
2022/01/01 00:19:21;;;;;;;13.30;8.90;;;9.80;96.30;;;;;;4956738;29;20640;-78
2022/01/01 00:21:47;;;;;;;13.50;8.87;;;9.80;96.30;;;;;;4956907;29;20641;-76
2022/01/01 00:24:13;;;;;;;11.40;9.33;;;9.80;96.30;;;;;;4956824;29;20171;-75
2022/01/01 00:26:38;;;;;;;13.63;9.50;;;9.80;96.30;;;;;;4939321;29;20372;-74
2022/01/01 00:29:04;;;;;;;11.40;9.00;;;9.80;96.30;;;;;;4956654;29;20201;-75
2022/01/01 00:31:30;;;;;;;8.47;7.67;;;9.80;96.30;;;;;;4956524;29;20190;-75
2022/01/01 00:33:56;;;;;;;8.10;7.30;;;9.80;96.30;;;;;;4939330;29;20179;-75
2022/01/01 00:36:21;;;;;;;13.50;8.33;;;9.80;96.30;;;;;;4922023;29;20458;-75
2022/01/01 00:38:47;;;;;;;9.50;6.93;;;9.70;96.30;;;;;;4937357;29;20503;-76
2022/01/01 00:41:13;;;;;;;10.47;7.93;;;9.70;96.30;;;;;;4920130;29;20218;-75
2022/01/01 00:43:38;;;;;;;8.73;7.33;;;9.80;96.30;;;;;;4937348;29;20195;-75
2022/01/01 00:46:04;;;;;;;7.17;6.33;;;9.70;96.30;;;;;;4919822;29;20223;-75
2022/01/01 00:48:29;;;;;;;9.10;6.90;;;9.70;96.30;;;;;;4936979;29;20639;-76
2022/01/01 00:50:57;;;;;;;9.10;6.80;;;9.80;96.30;;;;;;4919905;29;20206;-74
2022/01/01 00:53:22;;;;;;;11.13;6.90;;;9.80;96.30;;;;;;4937235;29;20207;-75
2022/01/01 00:55:48;;;;;;;7.30;5.60;;;9.80;96.30;;;;;;4936970;29;20458;-75
2022/01/01 00:58:13;;;;;;;15.47;7.80;;;9.80;96.30;;;;;;4937051;29;20183;-75
2022/01/01 05:02:27;;;;;;;2.40;2.07;;;9.30;96.30;;;;;;5018197;23;20599;-76
2022/01/01 05:04:53;;;;;;;2.63;2.20;;;9.30;96.30;;;;;;4975171;28;20785;-76
2022/01/01 05:07:19;;;;;;;4.07;2.27;;;9.40;96.30;;;;;;4974707;28;20541;-75
2022/01/01 05:09:44;;;;;;;3.90;2.73;;;9.30;96.30;;;;;;4975192;28;20414;-76
2022/01/01 05:12:10;;;;;;;2.73;2.50;;;9.30;96.30;;;;;;4974994;28;20194;-76
2022/01/01 05:14:36;;;;;;;3.93;2.33;;;9.40;96.30;;;;;;4977008;28;20291;-79
2022/01/01 05:17:01;;;;;;;3.17;2.30;;;9.30;96.30;;;;;;4975905;28;20174;-79
2022/01/01 05:19:27;;;;;;;3.70;2.57;;;9.40;96.30;;;;;;4977075;28;20174;-79
2022/01/01 05:29:38;;;;;;;2.63;2.43;;;9.40;96.30;;;;;;5690401;23;20514;-78
2022/01/01 05:32:04;;;;;;;4.03;2.57;;;9.50;96.30;;;;;;4955438;29;20443;-76
2022/01/01 05:34:30;;;;;;;4.57;3.00;;;9.50;96.30;;;;;;4953269;28;20547;-76
2022/01/01 05:36:55;;;;;;;3.10;1.80;;;9.50;96.30;;;;;;4935814;29;20259;-76
2022/01/01 05:39:21;;;;;;;2.50;2.30;;;9.50;96.30;;;;;;4935981;29;20541;-76
2022/01/01 05:41:46;;;;;;;2.70;1.77;;;9.50;96.30;;;;;;4936116;29;20250;-76
2022/01/01 05:44:12;;;;;;;3.10;2.27;;;9.50;96.30;;;;;;4936191;29;20164;-75
2022/01/01 05:46:37;;;;;;;4.10;2.07;;;9.50;96.30;;;;;;4935608;29;20195;-77
2022/01/01 05:49:03;;;;;;;2.73;2.27;;;9.50;96.30;;;;;;4936220;29;20715;-75
2022/01/01 05:51:28;;;;;;;6.30;2.50;;;9.50;96.30;;;;;;4935850;29;20610;-76
2022/01/01 05:53:53;;;;;;;2.30;1.73;;;9.50;96.30;;;;;;4918814;29;20180;-76
2022/01/01 05:56:19;;;;;;;3.57;2.20;;;9.50;96.30;;;;;;4935430;29;20726;-78
2022/01/01 05:58:44;;;;;;;2.77;1.97;;;9.50;96.30;;;;;;4935816;29;20172;-76
2022/01/01 06:01:10;;;;;;;4.10;2.13;;;9.50;96.30;;;;;;4935803;29;20203;-76
2022/01/01 06:03:35;;;;;;;2.37;1.70;;;9.60;96.30;;;;;;4935859;29;20231;-76
2022/01/01 06:06:01;;;;;;;5.80;2.40;;;9.50;96.30;;;;;;4935090;29;21006;-76
2022/01/01 06:08:28;;;;;;;3.33;2.20;;;9.50;96.30;;;;;;4935734;29;20171;-75
2022/01/01 06:10:54;;;;;;;3.13;1.90;;;9.50;96.30;;;;;;4937287;29;20210;-78
2022/01/01 06:13:20;;;;;;;2.67;2.23;;;9.60;96.30;;;;;;4954868;29;20454;-77
2022/01/01 06:15:45;;;;;;;3.60;1.90;;;9.60;96.30;;;;;;4954159;29;20937;-76
2022/01/01 06:18:11;;;;;;;2.30;1.80;;;9.60;96.30;;;;;;4954758;29;20271;-76
2022/01/01 06:20:37;;;;;;;2.20;1.57;;;9.60;96.30;;;;;;4954211;29;20206;-76
2022/01/01 06:23:04;;;;;;;2.43;1.60;;;9.60;96.30;;;;;;4954586;29;20194;-78
2022/01/01 06:25:29;;;;;;;1.60;1.37;;;9.60;96.30;;;;;;4954382;29;20600;-76
2022/01/01 06:27:55;;;;;;;2.87;1.70;;;9.60;96.30;;;;;;4953939;29;20443;-76
2022/01/01 06:30:20;;;;;;;2.40;1.73;;;9.60;96.30;;;;;;4954129;29;20187;-77
2022/01/01 06:32:49;;;;;;;3.77;2.03;;;9.60;96.30;;;;;;4954469;29;20269;-76
2022/01/01 06:35:14;;;;;;;1.83;1.70;;;9.60;96.30;;;;;;4945746;29;20291;-77
2022/01/01 06:37:40;;;;;;;2.33;1.57;;;9.60;96.30;;;;;;4934617;29;20853;-76
2022/01/01 06:40:06;;;;;;;2.10;1.70;;;9.60;96.30;;;;;;4934994;29;20178;-76
2022/01/01 06:42:32;;;;;;;2.20;1.57;;;9.60;96.30;;;;;;4934860;29;20250;-76
2022/01/01 06:44:57;;;;;;;3.30;1.63;;;9.50;96.30;;;;;;4934820;29;20510;-77
2022/01/01 06:47:25;;;;;;;4.40;1.93;;;9.50;96.30;;;;;;4934277;29;20178;-76
2022/01/01 06:49:50;;;;;;;2.03;1.70;;;9.50;96.30;;;;;;4933539;29;20510;-76
2022/01/01 06:52:15;;;;;;;2.87;1.90;;;9.50;96.30;;;;;;4934818;29;20447;-77
2022/01/01 06:54:41;;;;;;;2.20;1.50;;;9.60;96.30;;;;;;4934917;29;20267;-76
2022/01/01 06:57:07;;;;;;;1.90;1.70;;;9.50;96.30;;;;;;4934220;29;20190;-76
2022/01/01 06:59:32;;;;;;;2.10;1.90;;;9.50;96.30;;;;;;4934654;29;20537;-76
2022/01/01 07:01:58;;;;;;;3.13;1.80;;;9.50;96.30;;;;;;4934550;29;20215;-77
2022/01/01 07:04:23;;;;;;;2.87;2.10;;;9.50;96.30;;;;;;4933487;29;20639;-76
2022/01/01 07:06:49;;;;;;;2.47;1.60;;;9.50;96.30;;;;;;4934238;29;20179;-76
2022/01/01 07:09:14;;;;;;;2.93;1.87;;;9.50;96.30;;;;;;4940374;29;20174;-76
2022/01/01 07:11:40;;;;;;;2.43;1.53;;;9.60;96.30;;;;;;4953674;29;20198;-76
2022/01/01 07:14:06;;;;;;;7.73;2.13;;;9.60;96.30;;;;;;4953748;29;20183;-76
2022/01/01 07:16:31;;;;;;;2.07;1.83;;;9.60;96.30;;;;;;4953069;29;20273;-76
2022/01/01 07:18:57;;;;;;;1.87;1.70;;;9.60;96.30;;;;;;4953909;29;20179;-77
2022/01/01 07:21:22;;;;;;;1.93;1.83;;;9.50;96.30;;;;;;4953526;29;20207;-76
2022/01/01 07:23:48;;;;;;;5.40;1.73;;;9.60;96.30;;;;;;4953491;29;20179;-76
2022/01/01 07:26:13;;;;;;;3.07;1.80;;;9.60;96.30;;;;;;4952980;29;20182;-76
2022/01/01 07:28:39;;;;;;;2.60;1.57;;;9.50;96.30;;;;;;4953518;29;20171;-76
2022/01/01 07:31:04;;;;;;;3.27;2.57;;;9.60;96.30;;;;;;4936113;29;20214;-76
2022/01/01 07:33:30;;;;;;;2.70;2.10;;;9.60;96.30;;;;;;4953503;29;20234;-76
2022/01/01 07:35:55;;;;;;;2.87;2.00;;;9.60;96.30;;;;;;4939176;29;20175;-76
2022/01/01 07:38:22;;;;;;;4.13;2.10;;;9.60;96.30;;;;;;4934396;29;20171;-77
2022/01/01 07:40:48;;;;;;;3.60;2.17;;;9.60;96.30;;;;;;4932971;29;20207;-76
2022/01/01 07:43:16;;;;;;;3.30;2.03;;;9.60;96.30;;;;;;4934458;29;20502;-76
2022/01/01 07:45:42;;;;;;;3.00;2.00;;;9.50;96.30;;;;;;4933821;29;20412;-76
2022/01/01 07:48:08;;;;;;;2.50;1.93;;;9.60;96.30;;;;;;4934219;29;20887;-76
2022/01/01 07:50:35;;;;;;;5.37;2.00;;;9.60;96.30;;;;;;4934127;29;20925;-76
2022/01/01 07:53:00;;;;;;;2.90;2.03;;;9.60;96.30;;;;;;4934376;29;20784;-76
2022/01/01 07:55:26;;;;;;;2.00;1.80;;;9.60;96.30;;;;;;4934198;29;20420;-76
2022/01/01 07:57:52;;;;;;;1.97;1.73;;;9.60;96.30;;;;;;4935950;29;20179;-77
2022/01/01 08:00:17;;;;;;;3.50;2.57;;;9.60;96.30;;;;;;4936526;29;20238;-76
2022/01/01 08:02:44;;;;;;;2.47;1.70;;;9.60;96.30;;;;;;4937965;29;20266;-76
2022/01/01 08:05:11;;;;;;;2.97;1.80;;;9.60;96.30;;;;;;4937867;29;20199;-78
2022/01/01 08:07:37;;;;;;;2.70;1.90;;;9.60;96.30;;;;;;4936145;29;20430;-76
2022/01/01 08:10:04;;;;;;;2.97;1.60;;;9.60;96.30;;;;;;4949965;29;20414;-77
2022/01/01 08:12:30;;;;;;;3.13;1.90;;;9.50;96.30;;;;;;4956868;29;20226;-76
2022/01/01 08:14:56;;;;;;;2.20;1.77;;;9.60;96.30;;;;;;4956793;29;20414;-76
2022/01/01 08:17:23;;;;;;;4.50;2.00;;;9.60;96.30;;;;;;4956381;29;20627;-77
2022/01/01 08:19:50;;;;;;;1.90;1.63;;;9.60;96.30;;;;;;4956829;29;20459;-76
2022/01/01 08:22:15;;;;;;;2.60;1.73;;;9.60;96.30;;;;;;4956721;29;20465;-76
2022/01/01 08:24:41;;;;;;;6.13;1.97;;;9.60;96.30;;;;;;4956667;29;20406;-76
2022/01/01 08:27:07;;;;;;;5.07;1.83;;;9.60;96.30;;;;;;4956269;29;20185;-77
2022/01/01 08:29:33;;;;;;;3.33;2.30;;;9.70;96.30;;;;;;4956316;29;20606;-76
2022/01/01 08:31:59;;;;;;;5.37;2.00;;;9.70;96.30;;;;;;4956626;29;20473;-77
2022/01/01 08:34:24;;;;;;;3.43;1.80;;;9.80;96.30;;;;;;4954851;29;20624;-76
2022/01/01 08:36:50;;;;;;;2.07;1.60;;;9.80;96.30;;;;;;4935783;29;20234;-76
2022/01/01 08:39:16;;;;;;;3.33;1.90;;;9.80;96.30;;;;;;4936116;29;20183;-76
2022/01/01 08:41:43;;;;;;;2.43;1.90;;;9.80;96.30;;;;;;4937240;29;20286;-76
2022/01/01 08:44:09;;;;;;;4.00;1.87;;;9.90;96.30;;;;;;4935902;29;20184;-76
2022/01/01 08:46:35;;;;;;;4.23;1.77;;;9.90;96.30;;;;;;4936876;29;20954;-76
2022/01/01 08:49:02;;;;;;;3.97;2.00;;;9.90;96.30;;;;;;4937587;29;20176;-77
2022/01/01 08:51:29;;;;;;;3.60;2.00;;;10.00;96.30;;;;;;4937038;29;20191;-77
2022/01/01 08:53:54;;;;;;;3.67;1.73;;;10.00;96.30;;;;;;4937245;29;20892;-76
2022/01/01 08:56:20;;;;;;;2.77;1.70;;;10.00;96.30;;;;;;4936613;29;20423;-76
2022/01/01 08:58:46;;;;;;;6.23;2.27;;;10.10;96.30;;;;;;4936808;29;20326;-76
2022/01/01 09:01:12;;;;;;;4.67;1.93;;;10.10;96.30;;;;;;4936955;29;20658;-77
2022/01/01 09:03:38;;;;;;;4.53;2.00;;;10.10;96.30;;;;;;4936947;29;20415;-76
2022/01/01 09:06:05;;;;;;;3.53;1.87;;;10.10;96.30;;;;;;4936378;29;20411;-76
2022/01/01 09:08:32;;;;;;;4.20;2.23;;;10.10;96.30;;;;;;4936724;29;20172;-76
2022/01/01 09:10:58;;;;;;;7.23;2.10;;;10.10;96.30;;;;;;4955818;29;20469;-78
2022/01/01 09:13:24;;;;;;;5.47;2.47;;;10.10;96.30;;;;;;4955798;29;20402;-77
2022/01/01 09:15:49;;;;;;;4.50;2.30;;;10.20;96.30;;;;;;4955353;29;20182;-76
2022/01/01 09:18:15;;;;;;;3.80;2.43;;;10.20;96.30;;;;;;4955934;29;20175;-76
2022/01/01 09:20:41;;;;;;;3.57;2.07;;;10.20;96.30;;;;;;4956258;29;20215;-76
2022/01/01 09:23:07;;;;;;;4.13;2.17;;;10.20;96.30;;;;;;4955755;29;20183;-76
2022/01/01 09:25:33;;;;;;;3.87;2.07;;;10.20;96.30;;;;;;4955703;29;20218;-76
2022/01/01 09:27:59;;;;;;;3.53;2.13;;;10.30;96.30;;;;;;4955042;29;20171;-76
2022/01/01 09:30:24;;;;;;;3.60;1.70;;;10.30;96.30;;;;;;4955430;29;20461;-76
2022/01/01 09:32:50;;;;;;;7.87;2.60;;;10.40;96.30;;;;;;4955634;29;20646;-76
2022/01/01 09:35:17;;;;;;;5.67;2.77;;;10.30;96.30;;;;;;4946915;29;20175;-76
2022/01/01 09:37:42;;;;;;;7.03;3.30;;;10.30;96.30;;;;;;4934465;29;20420;-76
2022/01/01 09:40:09;;;;;;;4.70;2.83;;;10.40;96.30;;;;;;4936299;29;20411;-76
2022/01/01 09:42:35;;;;;;;10.83;2.20;;;10.40;96.30;;;;;;4936091;29;20191;-76
2022/01/01 09:45:04;;;;;;;4.60;2.70;;;10.40;96.30;;;;;;4936288;29;20411;-77
2022/01/01 09:47:30;;;;;;;5.40;2.53;;;10.40;96.30;;;;;;4935531;29;20424;-76
2022/01/01 09:49:55;;;;;;;5.40;2.77;;;10.40;96.30;;;;;;4934788;29;20419;-76
2022/01/01 09:52:21;;;;;;;4.40;2.23;;;10.40;96.30;;;;;;4936012;29;20584;-75
2022/01/01 09:54:47;;;;;;;8.07;2.80;;;10.40;96.30;;;;;;4936039;29;20198;-77
2022/01/01 09:57:12;;;;;;;4.57;2.33;;;10.30;96.30;;;;;;4934091;29;20667;-76
2022/01/01 09:59:38;;;;;;;3.63;2.90;;;10.40;96.30;;;;;;4935822;29;20203;-76
2022/01/01 10:02:04;;;;;;;4.43;2.60;;;10.50;96.30;;;;;;4935794;29;20703;-76
2022/01/01 10:04:43;;;;;;;4.73;2.67;;;10.50;96.30;;;;;;4935840;29;20515;-77
2022/01/01 10:07:09;;;;;;;8.70;2.63;;;10.50;96.30;;;;;;4935342;29;20171;-75
2022/01/01 10:09:39;;;;;;;7.20;3.53;;;10.50;96.30;;;;;;4944283;29;20426;-75
2022/01/01 10:12:07;;;;;;;5.67;2.97;;;10.50;96.30;;;;;;4954879;29;20438;-76
2022/01/01 10:14:40;;;;;;;4.60;2.70;;;10.50;96.30;;;;;;4954841;29;20826;-75
2022/01/01 10:17:23;;;;;;;6.37;2.57;;;10.50;96.30;;;;;;4937176;29;20438;-75
2022/01/01 10:19:52;;;;;;;3.27;2.40;;;10.50;96.30;;;;;;4954255;28;20970;-76
2022/01/01 10:22:23;;;;;;;9.03;2.97;;;10.50;96.30;;;;;;4954555;29;20458;-75
2022/01/01 10:27:52;;;;;;;8.10;3.47;;;10.60;96.30;;;;;;4954339;29;20402;-75
2022/01/01 10:30:19;;;;;;;6.97;2.87;;;10.60;96.30;;;;;;4954485;29;20430;-75
2022/01/01 10:33:00;;;;;;;4.80;2.37;;;10.60;96.30;;;;;;4954570;29;20930;-75
2022/01/01 10:35:26;;;;;;;6.13;2.70;;;10.60;96.30;;;;;;4945338;29;20420;-78
2022/01/01 10:37:52;;;;;;;7.27;2.47;;;10.70;96.30;;;;;;4934709;29;20592;-75
2022/01/01 10:40:28;;;;;;;4.50;2.60;;;10.70;96.30;;;;;;4935173;29;20506;-76
2022/01/01 10:42:54;;;;;;;6.90;2.83;;;10.70;96.30;;;;;;4935151;29;20183;-77
2022/01/01 10:45:38;;;;;;;6.73;2.30;;;10.80;96.30;;;;;;4935307;29;20451;-77
2022/01/01 10:48:14;;;;;;;3.73;2.50;;;10.80;96.30;;;;;;4934865;29;20404;-75
2022/01/01 10:50:41;;;;;;;9.13;2.77;;;10.80;96.30;;;;;;4935052;29;20437;-78
2022/01/01 10:53:21;;;;;;;3.57;2.27;;;10.90;96.30;;;;;;4935121;29;20502;-75
2022/01/01 10:55:51;;;;;;;7.20;2.53;;;11.10;96.30;;;;;;4933420;29;20778;-75
2022/01/01 10:58:22;;;;;;;4.77;2.23;;;11.10;96.30;;;;;;4935063;29;20502;-76
2022/01/01 11:00:49;;;;;;;8.30;2.60;;;11.10;96.30;;;;;;4935701;29;20463;-76
2022/01/01 11:03:18;;;;;;;5.40;2.90;;;11.10;96.30;;;;;;4936522;29;20780;-78
2022/01/01 11:05:45;;;;;;;6.83;2.37;;;11.60;96.30;;;;;;4936423;29;20411;-78
2022/01/01 11:08:12;;;;;;;7.17;2.23;;;11.90;96.30;;;;;;4937691;29;20415;-78
2022/01/01 11:10:39;;;;;;;5.20;2.47;;;12.30;96.30;;;;;;4954259;29;20478;-78
2022/01/01 11:13:06;;;;;;;6.20;2.47;;;12.20;96.30;;;;;;4940926;29;20426;-77
2022/01/01 11:15:32;;;;;;;4.23;2.33;;;12.40;96.30;;;;;;4954874;29;20461;-76
2022/01/01 11:17:59;;;;;;;6.43;2.27;;;12.10;96.30;;;;;;4953898;29;20450;-75
2022/01/01 14:14:06;;;;;;;5.33;3.30;;;10.10;96.30;;;;;;5524642;23;21076;-77
2022/01/01 14:16:32;;;;;;;6.23;3.50;;;10.10;96.30;;;;;;4954378;29;20402;-75
2022/01/01 14:18:59;;;;;;;8.57;4.00;;;10.10;96.30;;;;;;4954876;29;20911;-75
2022/01/01 14:21:25;;;;;;;7.17;3.60;;;10.10;96.30;;;;;;4954694;28;20459;-75
2022/01/01 14:23:54;;;;;;;6.40;3.90;;;10.10;96.30;;;;;;4954784;29;20434;-76
2022/01/01 14:26:22;;;;;;;8.73;4.20;;;10.10;96.30;;;;;;4954521;29;20902;-75
2022/01/01 14:28:51;;;;;;;8.40;3.43;;;10.10;96.30;;;;;;4953782;29;20414;-77
2022/01/01 14:31:18;;;;;;;8.73;3.03;;;10.10;96.30;;;;;;4947551;29;20443;-79
2022/01/01 14:33:44;;;;;;;9.63;3.77;;;10.10;96.30;;;;;;4956146;29;20423;-79
2022/01/01 14:36:12;;;;;;;9.63;3.73;;;10.10;96.30;;;;;;4928026;29;20430;-77
2022/01/01 14:38:39;;;;;;;7.17;3.17;;;10.00;96.30;;;;;;4956303;29;20191;-78
2022/01/01 14:41:07;;;;;;;7.00;3.90;;;10.10;96.30;;;;;;4959751;28;20478;-77
2022/01/01 14:43:33;;;;;;;8.93;3.67;;;10.10;96.30;;;;;;4936244;29;20451;-79
2022/01/01 14:46:00;;;;;;;6.97;3.40;;;10.00;96.30;;;;;;4969624;28;20984;-78
2022/01/01 14:48:40;;;;;;;8.57;3.57;;;10.00;96.30;;;;;;4958662;28;20670;-77
2022/01/01 14:51:06;;;;;;;7.80;3.57;;;10.00;96.30;;;;;;4957272;28;20481;-77
2022/01/01 14:53:52;;;;;;;9.33;3.30;;;10.00;96.30;;;;;;4938715;29;20421;-78
2022/01/01 14:56:35;;;;;;;4.93;3.10;;;10.00;96.30;;;;;;4936465;29;20187;-78
2022/01/01 14:59:05;;;;;;;6.73;3.20;;;10.00;96.30;;;;;;4919102;29;20435;-79
2022/01/01 15:01:31;;;;;;;5.83;3.20;;;10.00;96.30;;;;;;4943812;29;20498;-79
2022/01/01 15:03:57;;;;;;;9.57;3.33;;;9.90;96.30;;;;;;4943246;29;20423;-78
2022/01/01 15:06:26;;;;;;;4.40;3.20;;;9.90;96.30;;;;;;4955920;28;20426;-78
2022/01/01 15:08:55;;;;;;;6.20;3.53;;;9.80;96.30;;;;;;4939319;29;20186;-77
2022/01/01 15:11:20;;;;;;;10.00;3.63;;;9.80;96.30;;;;;;4957348;28;20449;-79
2022/01/01 15:13:48;;;;;;;10.07;3.70;;;9.80;96.30;;;;;;4955662;29;20533;-78
2022/01/01 15:16:14;;;;;;;6.70;3.93;;;9.80;96.30;;;;;;4956634;29;20422;-79
2022/01/01 15:18:40;;;;;;;4.33;2.43;;;9.80;96.30;;;;;;4957402;29;20516;-79
2022/01/01 15:21:13;;;;;;;5.53;2.63;;;9.80;96.30;;;;;;4938859;29;20482;-79
2022/01/01 15:23:47;;;;;;;6.00;3.17;;;9.70;96.30;;;;;;4940988;29;20179;-79
2022/01/01 15:26:14;;;;;;;4.73;2.97;;;9.70;96.30;;;;;;4939522;29;20490;-79
2022/01/01 15:28:41;;;;;;;7.00;3.47;;;9.60;96.30;;;;;;4938840;29;20423;-78
2022/01/01 15:31:21;;;;;;;4.73;3.23;;;9.60;96.30;;;;;;4937959;29;20475;-79
2022/01/01 15:33:50;;;;;;;5.60;3.50;;;9.70;96.30;;;;;;4920554;29;20510;-79
2022/01/01 15:36:38;;;;;;;11.97;4.90;;;9.70;96.30;;;;;;4953140;29;20430;-78
2022/01/01 15:39:07;;;;;;;7.27;3.60;;;9.60;96.30;;;;;;4938600;29;20954;-80
2022/01/01 15:44:12;;;;;;;10.33;4.70;;;9.60;96.30;;;;;;4956965;29;20399;-78
2022/01/01 15:46:38;;;;;;;5.80;3.10;;;9.60;96.30;;;;;;4939013;29;20422;-78
2022/01/01 15:49:06;;;;;;;10.00;3.60;;;9.70;96.30;;;;;;4953959;29;20514;-76
2022/01/01 15:51:32;;;;;;;9.20;3.17;;;9.60;96.30;;;;;;4953507;29;20199;-78
2022/01/01 15:53:57;;;;;;;5.33;3.00;;;9.60;96.30;;;;;;4953627;29;20414;-76
2022/01/01 15:56:52;;;;;;;10.27;4.03;;;9.50;96.30;;;;;;4953105;29;20423;-77
2022/01/01 15:59:18;;;;;;;6.70;3.30;;;9.50;96.30;;;;;;4952580;29;20201;-77
2022/01/01 16:01:51;;;;;;;5.57;3.20;;;9.50;96.30;;;;;;4953233;28;20462;-77
2022/01/01 16:04:46;;;;;;;6.00;3.60;;;9.40;96.30;;;;;;4954406;29;20469;-78
2022/01/01 16:07:16;;;;;;;7.70;4.17;;;9.40;96.30;;;;;;4955377;29;20459;-78
2022/01/01 16:09:48;;;;;;;7.20;3.77;;;9.40;96.30;;;;;;4946858;29;20431;-79
2022/01/01 16:12:21;;;;;;;7.30;4.97;;;9.40;96.30;;;;;;4934795;29;21138;-77
2022/01/01 16:15:09;;;;;;;7.13;4.90;;;9.40;96.30;;;;;;4919123;29;20443;-79
2022/01/01 16:17:38;;;;;;;5.00;4.00;;;9.40;96.30;;;;;;4936316;29;20431;-79
2022/01/01 16:20:05;;;;;;;42.40;27.37;;;9.50;96.30;;;;;;4931124;29;20448;-79
2022/01/01 16:22:34;;;;;;;13.73;7.17;;;9.40;96.30;;;;;;4929933;29;20469;-80
2022/01/01 16:25:00;;;;;;;40.47;20.10;;;9.50;96.30;;;;;;4945755;29;20451;-77
2022/01/01 16:27:27;;;;;;;30.17;16.07;;;9.50;96.30;;;;;;4922162;29;20490;-78
2022/01/01 16:29:53;;;;;;;12.80;6.73;;;9.50;96.30;;;;;;4921419;29;20455;-77
2022/01/01 16:32:21;;;;;;;8.90;5.37;;;9.60;96.30;;;;;;4942804;29;20448;-77
2022/01/01 16:34:49;;;;;;;8.27;5.00;;;9.50;96.30;;;;;;4956436;29;20465;-77
2022/01/01 16:37:15;;;;;;;8.87;5.57;;;9.40;96.30;;;;;;4945786;28;20841;-76
2022/01/01 16:39:41;;;;;;;16.40;6.90;;;9.30;96.30;;;;;;4956143;29;20473;-76
2022/01/01 16:42:10;;;;;;;9.40;5.00;;;9.30;96.30;;;;;;4956190;29;20612;-80
2022/01/01 16:44:56;;;;;;;9.93;6.23;;;9.20;96.30;;;;;;4939304;29;20221;-77
2022/01/01 16:47:45;;;;;;;7.93;4.73;;;9.20;96.30;;;;;;4953914;29;21020;-79
2022/01/01 16:50:14;;;;;;;8.00;4.97;;;9.10;96.30;;;;;;4957128;28;20419;-79
2022/01/01 16:52:59;;;;;;;10.33;4.70;;;9.00;96.30;;;;;;4956705;29;20489;-79
2022/01/01 16:55:27;;;;;;;7.17;4.00;;;9.00;96.30;;;;;;4956959;29;20437;-77
2022/01/01 16:58:06;;;;;;;14.57;5.30;;;9.00;96.30;;;;;;4939348;29;20430;-79
2022/01/01 17:00:35;;;;;;;9.47;5.80;;;8.90;96.30;;;;;;4939431;28;20476;-79
2022/01/01 17:03:03;;;;;;;10.23;5.20;;;8.90;96.30;;;;;;4957222;29;20515;-78
2022/01/01 17:05:38;;;;;;;9.10;5.80;;;8.90;96.30;;;;;;4939788;29;20429;-78
2022/01/01 17:08:04;;;;;;;8.47;4.67;;;8.80;96.30;;;;;;4955172;29;20430;-80
2022/01/01 17:10:30;;;;;;;7.83;6.10;;;8.80;96.30;;;;;;4956552;28;20724;-80
2022/01/01 17:12:56;;;;;;;12.23;8.10;;;8.90;96.30;;;;;;4956872;29;20473;-79
2022/01/01 17:15:23;;;;;;;9.90;6.17;;;9.00;96.30;;;;;;4942611;29;20175;-78
2022/01/01 17:18:09;;;;;;;11.87;7.47;;;9.00;96.30;;;;;;4957935;29;20414;-77
2022/01/01 17:25:47;;;;;;;7.90;4.00;;;9.10;96.30;;;;;;5246273;23;20490;-78
2022/01/01 17:28:38;;;;;;;6.67;4.33;;;9.10;96.30;;;;;;4940784;29;20403;-77
2022/01/01 17:31:04;;;;;;;5.40;4.77;;;9.10;96.30;;;;;;4956697;29;20426;-77
2022/01/01 17:33:37;;;;;;;9.43;5.00;;;9.00;96.30;;;;;;4951888;29;20418;-79
2022/01/01 17:36:19;;;;;;;7.83;4.10;;;9.00;96.30;;;;;;4949572;29;20529;-77
2022/01/01 18:15:29;;;;;;;11.10;7.27;;;8.00;96.30;;;;;;4952231;29;20478;-77
2022/01/01 18:18:04;;;;;;;13.13;7.30;;;7.90;96.30;;;;;;4954623;29;20957;-78
2022/01/01 18:20:30;;;;;;;11.03;6.63;;;7.70;96.30;;;;;;4934367;29;20942;-79
2022/01/01 18:23:02;;;;;;;6.30;4.60;;;7.60;96.30;;;;;;4942534;29;20788;-79
2022/01/01 18:25:39;;;;;;;9.93;4.90;;;7.60;96.30;;;;;;4944357;29;20415;-78
2022/01/01 18:28:19;;;;;;;8.70;4.53;;;7.40;96.30;;;;;;4928355;29;20469;-78
2022/01/01 18:30:47;;;;;;;8.43;4.80;;;7.40;96.30;;;;;;4928386;29;20932;-80
2022/01/01 18:33:14;;;;;;;8.70;4.80;;;7.50;96.30;;;;;;4945584;29;20449;-77
2022/01/01 18:35:40;;;;;;;11.33;5.47;;;7.40;96.30;;;;;;4947766;29;20426;-78
2022/01/01 18:38:06;;;;;;;14.23;6.63;;;7.20;96.30;;;;;;4928583;29;20486;-77
2022/01/01 18:40:31;;;;;;;7.87;4.50;;;7.10;96.30;;;;;;4926049;29;20543;-77
2022/01/01 18:42:57;;;;;;;8.57;5.70;;;7.10;96.30;;;;;;4944768;29;20195;-80
2022/01/01 18:45:23;;;;;;;11.73;5.40;;;7.00;96.30;;;;;;4928376;29;20178;-79
2022/01/01 18:47:49;;;;;;;10.17;5.23;;;7.10;96.30;;;;;;4943546;29;20216;-79
2022/01/01 18:50:15;;;;;;;11.43;6.50;;;7.20;96.30;;;;;;4928338;29;20438;-81
2022/01/01 18:52:48;;;;;;;11.70;6.50;;;7.20;96.30;;;;;;4930048;29;20435;-79
2022/01/01 18:55:14;;;;;;;8.13;5.40;;;;;;;;;;4943534;29;20427;-80
2022/01/01 18:58:01;;;;;;;7.87;4.97;;;7.30;96.30;;;;;;4946338;29;20415;-78
2022/01/01 19:00:30;;;;;;;20.03;9.73;;;7.30;96.30;;;;;;4943642;29;20719;-80
2022/01/01 19:02:57;;;;;;;16.87;9.63;;;7.30;96.30;;;;;;4949663;29;20978;-80
2022/01/01 19:05:33;;;;;;;17.50;10.80;;;7.20;96.30;;;;;;4927612;29;20419;-80
2022/01/01 19:08:12;;;;;;;14.47;7.23;;;7.20;96.30;;;;;;4928865;29;20431;-79
2022/01/01 19:10:43;;;;;;;24.67;14.20;;;7.10;96.30;;;;;;4931150;29;20474;-79
2022/01/01 19:13:16;;;;;;;24.67;15.47;;;7.00;96.30;;;;;;4943771;29;20424;-79
2022/01/01 19:15:52;;;;;;;16.57;10.60;;;7.00;96.30;;;;;;4943776;29;20426;-79
2022/01/01 19:18:19;;;;;;;27.17;16.80;;;7.00;96.30;;;;;;4920083;29;20430;-79
2022/01/01 19:20:47;;;;;;;12.53;8.50;;;7.00;96.30;;;;;;4927152;29;20442;-78
2022/01/01 19:23:15;;;;;;;16.13;10.60;;;6.80;96.30;;;;;;4945372;29;20431;-79
2022/01/01 19:25:44;;;;;;;8.77;5.83;;;6.70;96.30;;;;;;4931209;29;20431;-80
2022/01/01 19:28:12;;;;;;;16.47;11.70;;;6.70;96.30;;;;;;4923710;29;20428;-78
2022/01/01 19:30:39;;;;;;;11.43;8.10;;;6.60;96.30;;;;;;4923515;29;20457;-79
2022/01/01 19:33:05;;;;;;;7.83;5.50;;;6.50;96.30;;;;;;4948312;29;20911;-79
2022/01/01 19:35:31;;;;;;;7.77;3.93;;;6.40;96.30;;;;;;4942011;29;20430;-79
2022/01/01 19:37:57;;;;;;;9.73;5.27;;;6.30;96.30;;;;;;4917885;29;20179;-78
2022/01/01 19:40:24;;;;;;;12.03;8.50;;;6.40;96.30;;;;;;4928412;29;20430;-79
2022/01/01 19:42:58;;;;;;;7.53;5.23;;;6.40;96.30;;;;;;4933927;29;20915;-78
2022/01/01 19:45:25;;;;;;;9.07;5.30;;;6.50;96.30;;;;;;4945692;29;20840;-80
2022/01/01 19:48:15;;;;;;;5.10;3.90;;;6.60;96.30;;;;;;4924394;29;20927;-78
2022/01/01 19:50:40;;;;;;;5.93;3.70;;;6.60;96.30;;;;;;4945367;29;20442;-80
2022/01/01 19:53:09;;;;;;;10.13;4.80;;;6.50;96.30;;;;;;4929591;29;20434;-79
2022/01/01 19:55:38;;;;;;;6.27;4.50;;;6.50;96.30;;;;;;4930925;29;20185;-81
2022/01/01 19:58:10;;;;;;;12.23;5.07;;;6.50;96.30;;;;;;4939993;29;20426;-81
2022/01/01 20:00:37;;;;;;;7.03;4.20;;;6.40;96.30;;;;;;4952365;29;20439;-81
2022/01/01 20:03:02;;;;;;;6.20;3.30;;;6.20;96.30;;;;;;4934639;29;20431;-80
2022/01/01 20:05:28;;;;;;;6.10;3.23;;;6.00;96.30;;;;;;4934496;29;20833;-80
2022/01/01 20:07:54;;;;;;;7.90;2.60;;;5.90;96.30;;;;;;4921135;29;20427;-80
2022/01/01 20:10:21;;;;;;;8.33;5.10;;;5.80;96.30;;;;;;4929932;29;20183;-80
2022/01/01 20:12:47;;;;;;;7.00;3.70;;;5.80;96.30;;;;;;4938523;29;20461;-80
2022/01/01 20:15:13;;;;;;;40.90;23.03;;;5.90;96.30;;;;;;4934450;29;20474;-80
2022/01/01 20:17:39;;;;;;;18.13;11.43;;;;;;;;;;4939831;29;20414;-79
2022/01/01 20:20:06;;;;;;;7.10;5.30;;;6.00;96.30;;;;;;4955081;29;20860;-79
2022/01/01 20:22:33;;;;;;;4.97;4.47;;;6.10;96.30;;;;;;4921361;29;20498;-79
2022/01/01 20:24:58;;;;;;;5.43;4.60;;;6.20;96.30;;;;;;4924897;29;20444;-78
2022/01/01 20:27:26;;;;;;;6.90;3.97;;;6.30;96.30;;;;;;4957165;29;20946;-79
2022/01/01 20:29:52;;;;;;;5.90;4.00;;;6.10;96.30;;;;;;4927442;29;20176;-79
2022/01/01 20:32:18;;;;;;;6.43;4.53;;;6.00;96.30;;;;;;4933272;29;20993;-79
2022/01/01 20:34:44;;;;;;;9.80;5.17;;;5.90;96.30;;;;;;4941512;29;20183;-78
2022/01/01 20:37:09;;;;;;;7.37;4.30;;;5.70;96.30;;;;;;4925384;29;20494;-78
2022/01/01 20:39:35;;;;;;;7.73;4.90;;;5.50;96.30;;;;;;4937663;29;20262;-78
2022/01/01 20:42:01;;;;;;;9.97;5.27;;;5.30;96.30;;;;;;4932436;29;20207;-78
2022/01/01 20:44:26;;;;;;;9.43;5.43;;;5.10;96.30;;;;;;4947048;29;20175;-78
2022/01/01 20:46:51;;;;;;;9.27;4.83;;;4.90;96.30;;;;;;4939207;29;20180;-78
2022/01/01 20:49:17;;;;;;;8.07;5.10;;;4.70;96.30;;;;;;4947222;29;20197;-78